Time;durP1;ratioP1;P1;durP2;ratioP2;P2;SDS_P1;SDS_P2;PMS_P1;PMS_P2;Temp;Humidity;BMP_temperature;BMP_pressure;BME280_temperature;BME280_humidity;BME280_pressure;Samples;Min_cycle;Max_cycle;Signal;HPM_P1;HPM_P2
2021/04/26 00:00:26;;;;;;;4.47;1.40;;;;;;;;;;4991963;28;20198;-68
2021/04/26 00:02:52;;;;;;;4.63;1.80;;;;;;;;;;4982868;28;20264;-68
2021/04/26 00:05:18;;;;;;;6.23;1.73;;;;;;;;;;4989212;28;20642;-68
2021/04/26 00:07:43;;;;;;;3.50;1.90;;;;;;;;;;4986207;28;20639;-68
2021/04/26 00:10:10;;;;;;;10.00;2.47;;;;;;;;;;4993559;28;20183;-68
2021/04/26 00:12:35;;;;;;;8.37;2.10;;;;;;;;;;4994041;28;20187;-68
2021/04/26 00:15:03;;;;;;;3.77;1.77;;;;;;;;;;4983355;28;20281;-68
2021/04/26 00:17:28;;;;;;;4.03;1.57;;;;;;;;;;4992719;28;20280;-68
2021/04/26 00:19:54;;;;;;;12.20;1.83;;;;;;;;;;4984587;28;20772;-68
2021/04/26 00:22:19;;;;;;;5.00;2.10;;;;;;;;;;4994378;28;20187;-68
2021/04/26 00:24:44;;;;;;;4.87;2.10;;;;;;;;;;4981737;28;20199;-68
2021/04/26 00:27:10;;;;;;;6.90;2.40;;;;;;;;;;4992421;28;20195;-68
2021/04/26 00:29:35;;;;;;;7.83;2.07;;;;;;;;;;4982272;28;20191;-68
2021/04/26 00:32:00;;;;;;;8.00;1.90;;;;;;;;;;4996137;28;20194;-68
2021/04/26 00:34:26;;;;;;;5.90;2.43;;;;;;;;;;4982854;28;20191;-68
2021/04/26 00:36:51;;;;;;;6.03;2.20;;;;;;;;;;4995710;28;20191;-68
2021/04/26 00:39:17;;;;;;;4.23;2.00;;;;;;;;;;4983534;28;20226;-68
2021/04/26 00:41:42;;;;;;;6.03;1.80;;;;;;;;;;4992102;28;20275;-67
2021/04/26 00:44:08;;;;;;;4.93;2.00;;;;;;;;;;4989657;28;20253;-68
2021/04/26 00:46:33;;;;;;;7.13;1.80;;;;;;;;;;4992834;28;20593;-68
2021/04/26 00:48:58;;;;;;;4.77;1.80;;;;;;;;;;4992434;28;20657;-69
2021/04/26 00:51:24;;;;;;;8.27;2.03;;;;;;;;;;4983490;28;20211;-69
2021/04/26 00:53:50;;;;;;;10.57;2.00;;;;;;;;;;4994207;28;20661;-69
2021/04/26 00:56:15;;;;;;;5.10;2.17;;;;;;;;;;4981971;28;20203;-68
2021/04/26 00:58:41;;;;;;;6.80;1.93;;;;;;;;;;4989831;28;20290;-68
2021/04/26 01:01:08;;;;;;;6.97;2.90;;;;;;;;;;4982510;28;20204;-68
2021/04/26 01:03:33;;;;;;;3.87;1.80;;;;;;;;;;4990419;28;20219;-68
2021/04/26 01:05:59;;;;;;;8.10;2.10;;;;;;;;;;4982493;28;20268;-68
2021/04/26 01:08:24;;;;;;;4.63;1.77;;;;;;;;;;4992391;28;20589;-68
2021/04/26 01:10:51;;;;;;;5.90;2.17;;;;;;;;;;4988320;28;21997;-68
2021/04/26 01:13:36;;;;;;;6.17;1.90;;;;;;;;;;4999409;28;20187;-68
2021/04/26 01:16:28;;;;;;;7.83;1.87;;;;;;;;;;4983149;28;20191;-68
2021/04/26 01:18:59;;;;;;;5.13;2.30;;;;;;;;;;4993819;28;20297;-69
2021/04/26 01:21:44;;;;;;;5.37;2.10;;;;;;;;;;4989183;28;20760;-68
2021/04/26 01:24:36;;;;;;;8.93;2.60;;;;;;;;;;4996305;28;20191;-68
2021/04/26 01:27:10;;;;;;;6.73;2.07;;;;;;;;;;4995519;28;20187;-68
2021/04/26 01:30:04;;;;;;;7.40;2.37;;;;;;;;;;4995377;28;20209;-68
2021/04/26 01:32:54;;;;;;;10.20;2.73;;;;;;;;;;4984332;28;20591;-69
2021/04/26 01:35:21;;;;;;;7.33;2.00;;;;;;;;;;4998985;28;20262;-69
2021/04/26 01:37:57;;;;;;;6.20;2.23;;;;;;;;;;4985797;28;20184;-68
2021/04/26 01:40:26;;;;;;;9.93;2.57;;;;;;;;;;4992020;28;20203;-68
2021/04/26 01:42:56;;;;;;;4.27;2.07;;;;;;;;;;4982995;28;20204;-68
2021/04/26 01:45:22;;;;;;;3.87;2.20;;;;;;;;;;4998632;28;20239;-70
2021/04/26 01:47:55;;;;;;;7.00;2.80;;;;;;;;;;4991179;28;20656;-67
2021/04/26 01:50:22;;;;;;;4.20;2.50;;;;;;;;;;4997590;28;20214;-67
2021/04/26 01:52:48;;;;;;;5.77;2.17;;;;;;;;;;4986408;28;20184;-68
2021/04/26 01:55:14;;;;;;;11.33;2.67;;;;;;;;;;4995944;28;20186;-68
2021/04/26 01:57:41;;;;;;;7.07;2.50;;;;;;;;;;4995360;28;20187;-68
2021/04/26 02:00:18;;;;;;;7.60;2.43;;;;;;;;;;4982937;28;20203;-69
2021/04/26 02:02:44;;;;;;;8.33;2.80;;;;;;;;;;4993152;28;20206;-69
2021/04/26 02:05:11;;;;;;;7.00;2.40;;;;;;;;;;4984706;28;20199;-69
2021/04/26 02:07:37;;;;;;;5.13;2.20;;;;;;;;;;4992556;28;20191;-69
2021/04/26 02:10:05;;;;;;;4.03;2.43;;;;;;;;;;4984681;28;20245;-68
2021/04/26 02:12:31;;;;;;;7.47;2.43;;;;;;;;;;4993646;28;20325;-68
2021/04/26 02:14:57;;;;;;;4.97;2.43;;;;;;;;;;4985448;28;20266;-69
2021/04/26 02:17:23;;;;;;;9.57;2.97;;;;;;;;;;4999942;28;20195;-69
2021/04/26 02:19:48;;;;;;;12.53;3.00;;;;;;;;;;4988815;28;20707;-68
2021/04/26 02:22:13;;;;;;;6.97;2.60;;;;;;;;;;5003967;28;20275;-68
2021/04/26 02:24:39;;;;;;;8.00;2.50;;;;;;;;;;4983212;28;20237;-68
2021/04/26 02:27:07;;;;;;;8.80;2.37;;;;;;;;;;4996685;28;20266;-68
2021/04/26 02:29:32;;;;;;;10.93;2.73;;;;;;;;;;4989491;28;20187;-68
2021/04/26 02:32:05;;;;;;;7.17;2.90;;;;;;;;;;4997552;28;20195;-68
2021/04/26 02:34:44;;;;;;;6.43;2.63;;;;;;;;;;4992579;28;20194;-68
2021/04/26 02:37:26;;;;;;;7.57;2.67;;;;;;;;;;4995189;28;20509;-68
2021/04/26 02:39:54;;;;;;;12.77;2.87;;;;;;;;;;4996704;28;20245;-68
2021/04/26 02:42:20;;;;;;;7.43;2.70;;;;;;;;;;4985989;28;20187;-68
2021/04/26 02:44:47;;;;;;;5.67;2.50;;;;;;;;;;4995253;28;20186;-68
2021/04/26 02:47:19;;;;;;;11.83;2.90;;;;;;;;;;4983739;28;20266;-68
2021/04/26 02:49:46;;;;;;;8.83;2.60;;;;;;;;;;4993655;28;20190;-68
2021/04/26 02:52:14;;;;;;;10.40;3.13;;;;;;;;;;4992948;28;20273;-67
2021/04/26 02:54:41;;;;;;;7.10;2.57;;;;;;;;;;4989981;28;20647;-68
2021/04/26 02:57:07;;;;;;;6.33;2.90;;;;;;;;;;4989881;28;20190;-67
2021/04/26 02:59:35;;;;;;;6.73;2.63;;;;;;;;;;4991773;28;20196;-68
2021/04/26 03:02:01;;;;;;;7.60;2.90;;;;;;;;;;4984266;28;20239;-68
2021/04/26 03:04:29;;;;;;;8.87;2.93;;;;;;;;;;4995004;28;20183;-68
2021/04/26 03:06:57;;;;;;;7.47;3.00;;;;;;;;;;4985040;28;20195;-68
2021/04/26 03:09:23;;;;;;;6.87;2.70;;;;;;;;;;4993763;28;20187;-68
2021/04/26 03:11:51;;;;;;;9.70;3.23;;;;;;;;;;4984469;28;20184;-67
2021/04/26 03:14:19;;;;;;;13.27;3.13;;;;;;;;;;4994861;28;20176;-67
2021/04/26 03:16:46;;;;;;;9.63;3.23;;;;;;;;;;4990929;28;20179;-67
2021/04/26 03:19:12;;;;;;;12.37;3.50;;;;;;;;;;4984295;28;20207;-67
2021/04/26 03:21:41;;;;;;;9.77;3.53;;;;;;;;;;4991291;28;20187;-68
2021/04/26 03:24:07;;;;;;;6.27;3.00;;;;;;;;;;4984093;28;20210;-68
2021/04/26 03:26:33;;;;;;;8.70;3.00;;;;;;;;;;4993370;28;20663;-68
2021/04/26 03:28:59;;;;;;;8.37;3.20;;;;;;;;;;4985073;28;20257;-72
2021/04/26 03:31:26;;;;;;;11.30;3.73;;;;;;;;;;4994991;28;20816;-68
2021/04/26 03:33:52;;;;;;;12.07;3.43;;;;;;;;;;4983254;28;20187;-68
2021/04/26 03:36:20;;;;;;;12.73;3.30;;;;;;;;;;4994483;28;20600;-68
2021/04/26 03:38:45;;;;;;;9.30;3.73;;;;;;;;;;4984121;28;20665;-67
2021/04/26 03:41:12;;;;;;;8.27;3.17;;;;;;;;;;4990578;28;20187;-67
2021/04/26 03:43:44;;;;;;;7.33;2.60;;;;;;;;;;4981877;28;20192;-68
2021/04/26 03:46:10;;;;;;;9.30;3.00;;;;;;;;;;4994499;28;20222;-68
2021/04/26 03:48:35;;;;;;;10.67;3.40;;;;;;;;;;4985702;28;20249;-68
2021/04/26 03:51:00;;;;;;;12.80;3.17;;;;;;;;;;4998617;28;20183;-68
2021/04/26 03:53:26;;;;;;;9.40;3.47;;;;;;;;;;4994143;28;20187;-68
2021/04/26 03:55:51;;;;;;;13.07;3.60;;;;;;;;;;4988212;28;20186;-68
2021/04/26 03:58:17;;;;;;;10.17;3.03;;;;;;;;;;4991134;28;20278;-68
2021/04/26 04:00:42;;;;;;;6.30;3.37;;;;;;;;;;4987226;28;20323;-68
2021/04/26 04:03:09;;;;;;;16.77;4.50;;;;;;;;;;4991919;28;20304;-68
2021/04/26 04:05:34;;;;;;;7.63;3.60;;;;;;;;;;4984615;28;20560;-67
2021/04/26 04:08:00;;;;;;;8.53;3.53;;;;;;;;;;5005880;28;20187;-68
2021/04/26 04:10:26;;;;;;;10.27;3.90;;;;;;;;;;4981473;28;20192;-67
2021/04/26 04:12:51;;;;;;;10.60;3.57;;;;;;;;;;4994632;28;20190;-67
2021/04/26 04:15:17;;;;;;;9.70;4.20;;;;;;;;;;4988013;28;20250;-68
2021/04/26 04:17:43;;;;;;;11.07;4.17;;;;;;;;;;4996291;28;20281;-67
2021/04/26 04:20:10;;;;;;;9.63;4.07;;;;;;;;;;4988840;28;20338;-67
2021/04/26 04:22:35;;;;;;;11.43;3.93;;;;;;;;;;4986087;28;20198;-67
2021/04/26 04:25:04;;;;;;;10.53;4.20;;;;;;;;;;4991197;28;20188;-67
2021/04/26 04:27:29;;;;;;;8.60;3.33;;;;;;;;;;4984794;28;20183;-68
2021/04/26 04:29:54;;;;;;;9.60;3.63;;;;;;;;;;4987182;28;20167;-68
2021/04/26 04:32:20;;;;;;;9.90;4.00;;;;;;;;;;4988160;28;20191;-68
2021/04/26 04:34:45;;;;;;;12.63;4.40;;;;;;;;;;4989802;28;20588;-68
2021/04/26 04:37:10;;;;;;;15.67;4.93;;;;;;;;;;4987220;28;20248;-68
2021/04/26 04:39:36;;;;;;;15.40;4.60;;;;;;;;;;4992369;28;20709;-68
2021/04/26 04:42:01;;;;;;;16.63;4.13;;;;;;;;;;4984388;28;20186;-68
2021/04/26 04:44:26;;;;;;;12.07;4.47;;;;;;;;;;4993569;28;20180;-68
2021/04/26 04:46:52;;;;;;;11.87;4.17;;;;;;;;;;4985234;28;20234;-68
2021/04/26 04:49:17;;;;;;;13.33;4.33;;;;;;;;;;4998243;28;20268;-68
2021/04/26 04:51:45;;;;;;;14.53;4.67;;;;;;;;;;4994427;28;20663;-68
2021/04/26 04:54:11;;;;;;;18.07;5.00;;;;;;;;;;4987616;28;20195;-68
2021/04/26 04:56:38;;;;;;;15.83;4.27;;;;;;;;;;4994642;28;20199;-68
2021/04/26 04:59:04;;;;;;;14.27;4.57;;;;;;;;;;4989013;28;20205;-68
2021/04/26 05:01:29;;;;;;;11.57;4.80;;;;;;;;;;4998907;28;20191;-68
2021/04/26 05:03:54;;;;;;;13.13;5.40;;;;;;;;;;4991983;28;20552;-68
2021/04/26 05:06:20;;;;;;;19.00;5.03;;;;;;;;;;4999616;28;20179;-68
2021/04/26 05:08:45;;;;;;;9.73;4.63;;;;;;;;;;4984780;28;20188;-68
2021/04/26 05:11:10;;;;;;;17.40;5.53;;;;;;;;;;4998150;28;20703;-68
2021/04/26 05:13:36;;;;;;;12.90;5.10;;;;;;;;;;4986360;28;20635;-68
2021/04/26 05:16:01;;;;;;;15.53;4.90;;;;;;;;;;4997628;28;20192;-68
2021/04/26 05:18:26;;;;;;;11.63;4.60;;;;;;;;;;4986239;28;20195;-68
2021/04/26 05:20:52;;;;;;;14.07;5.23;;;;;;;;;;4993670;28;20692;-68
2021/04/26 05:23:17;;;;;;;16.37;4.80;;;;;;;;;;4992294;28;20674;-68
2021/04/26 05:25:43;;;;;;;12.83;6.73;;;;;;;;;;4991330;28;20213;-68
2021/04/26 05:28:08;;;;;;;12.57;4.47;;;;;;;;;;4994440;28;20309;-68
2021/04/26 05:30:34;;;;;;;12.13;4.80;;;;;;;;;;4985488;28;20234;-68
2021/04/26 05:33:00;;;;;;;14.40;4.67;;;;;;;;;;4992972;28;20197;-68
2021/04/26 05:35:25;;;;;;;10.07;4.30;;;;;;;;;;4984560;28;20183;-68
2021/04/26 05:37:51;;;;;;;14.70;4.50;;;;;;;;;;4993510;28;20217;-68
2021/04/26 05:40:17;;;;;;;10.30;4.70;;;;;;;;;;4992320;28;20207;-68
2021/04/26 05:42:42;;;;;;;16.43;4.80;;;;;;;;;;4992482;28;20218;-68
2021/04/26 05:45:08;;;;;;;9.50;4.03;;;;;;;;;;4987037;28;20703;-68
2021/04/26 05:47:33;;;;;;;11.50;4.37;;;;;;;;;;4994333;28;20187;-68
2021/04/26 05:49:59;;;;;;;12.13;5.03;;;;;;;;;;4985530;28;20273;-68
2021/04/26 05:52:24;;;;;;;11.63;4.83;;;;;;;;;;4991215;28;20268;-68
2021/04/26 05:54:50;;;;;;;11.90;4.20;;;;;;;;;;4998723;28;20207;-68
2021/04/26 05:57:15;;;;;;;13.50;4.30;;;;;;;;;;4988027;28;20195;-68
2021/04/26 05:59:41;;;;;;;14.43;4.33;;;;;;;;;;4996084;28;20222;-68
2021/04/26 06:02:07;;;;;;;10.07;4.47;;;;;;;;;;4984646;28;20270;-68
2021/04/26 06:04:32;;;;;;;11.83;4.00;;;;;;;;;;4995665;28;20194;-68
2021/04/26 06:06:57;;;;;;;16.77;4.43;;;;;;;;;;4985570;28;20559;-68
2021/04/26 06:09:23;;;;;;;12.37;4.33;;;;;;;;;;4992136;28;20530;-68
2021/04/26 06:11:49;;;;;;;15.07;4.43;;;;;;;;;;4984322;28;20221;-68
2021/04/26 06:14:14;;;;;;;18.70;4.53;;;;;;;;;;4990999;28;20349;-68
2021/04/26 06:16:39;;;;;;;11.63;3.90;;;;;;;;;;4984450;28;20196;-68
2021/04/26 06:19:05;;;;;;;11.80;3.53;;;;;;;;;;4991586;28;20294;-68
2021/04/26 06:21:31;;;;;;;8.47;3.57;;;;;;;;;;4981965;28;20230;-68
2021/04/26 06:23:56;;;;;;;15.00;4.37;;;;;;;;;;4997207;28;20199;-68
2021/04/26 06:26:22;;;;;;;7.80;3.57;;;;;;;;;;4995502;28;20195;-68
2021/04/26 06:28:47;;;;;;;7.30;3.13;;;;;;;;;;4989381;28;20352;-68
2021/04/26 06:31:13;;;;;;;8.97;3.43;;;;;;;;;;4991943;28;20258;-68
2021/04/26 06:33:38;;;;;;;10.27;3.13;;;;;;;;;;4985953;28;20191;-68
2021/04/26 06:36:04;;;;;;;11.23;3.27;;;;;;;;;;4997087;28;20205;-68
2021/04/26 06:38:29;;;;;;;11.33;3.43;;;;;;;;;;4985498;28;20191;-68
2021/04/26 06:40:54;;;;;;;9.87;3.20;;;;;;;;;;4991737;28;20211;-68
2021/04/26 06:43:20;;;;;;;7.93;4.13;;;;;;;;;;4981085;28;20192;-68
2021/04/26 06:45:45;;;;;;;10.70;3.37;;;;;;;;;;4993218;28;20238;-68
2021/04/26 06:48:16;;;;;;;8.30;3.30;;;;;;;;;;4990625;28;20190;-68
2021/04/26 06:50:41;;;;;;;8.40;3.07;;;;;;;;;;4993622;28;20191;-68
2021/04/26 06:53:07;;;;;;;8.20;2.67;;;;;;;;;;4990218;28;20193;-69
2021/04/26 06:55:32;;;;;;;8.63;3.03;;;;;;;;;;4992947;28;20194;-68
2021/04/26 06:57:58;;;;;;;6.70;2.93;;;;;;;;;;4990188;28;20199;-68
2021/04/26 07:00:25;;;;;;;9.93;3.03;;;;;;;;;;4985997;28;20211;-69
2021/04/26 07:02:50;;;;;;;10.47;2.70;;;;;;;;;;4995496;28;20210;-68
2021/04/26 07:05:17;;;;;;;8.70;2.70;;;;;;;;;;4984300;28;20551;-68
2021/04/26 07:07:42;;;;;;;7.27;3.00;;;;;;;;;;4992376;28;20254;-68
2021/04/26 07:10:08;;;;;;;4.90;2.23;;;;;;;;;;4986952;28;20604;-68
2021/04/26 07:12:35;;;;;;;12.00;2.70;;;;;;;;;;4991531;28;20220;-68
2021/04/26 07:15:01;;;;;;;6.47;2.37;;;;;;;;;;4985640;28;20210;-69
2021/04/26 07:17:27;;;;;;;5.87;2.10;;;;;;;;;;4984924;28;20625;-68
2021/04/26 07:19:53;;;;;;;8.40;2.63;;;;;;;;;;4981904;28;20682;-68
2021/04/26 07:22:18;;;;;;;5.30;2.20;;;;;;;;;;4993470;28;20199;-68
2021/04/26 07:24:44;;;;;;;9.30;2.63;;;;;;;;;;4984891;28;20229;-68
2021/04/26 07:27:09;;;;;;;7.43;2.47;;;;;;;;;;4991979;28;20293;-69
2021/04/26 07:29:35;;;;;;;8.40;2.10;;;;;;;;;;4992297;28;20265;-68
2021/04/26 07:32:00;;;;;;;9.90;2.47;;;;;;;;;;4983702;28;20199;-68
2021/04/26 07:34:26;;;;;;;8.43;2.23;;;;;;;;;;4992958;28;20748;-68
2021/04/26 07:36:51;;;;;;;8.73;2.03;;;;;;;;;;4983001;28;20706;-69
2021/04/26 07:39:18;;;;;;;6.47;2.33;;;;;;;;;;4994555;28;20210;-68
2021/04/26 07:41:44;;;;;;;6.53;2.10;;;;;;;;;;4983928;28;20623;-68
2021/04/26 07:44:09;;;;;;;7.33;2.13;;;;;;;;;;4992300;28;20182;-69
2021/04/26 07:46:34;;;;;;;7.50;2.00;;;;;;;;;;4987962;28;20273;-69
2021/04/26 07:49:00;;;;;;;6.10;1.90;;;;;;;;;;4989695;28;20179;-68
2021/04/26 07:51:25;;;;;;;3.27;1.40;;;;;;;;;;4984547;28;20183;-68
2021/04/26 07:53:51;;;;;;;3.80;1.37;;;;;;;;;;4988895;28;20199;-67
2021/04/26 07:56:16;;;;;;;6.67;1.70;;;;;;;;;;4988091;28;20278;-68
2021/04/26 07:58:42;;;;;;;5.93;1.67;;;;;;;;;;4993101;28;20233;-67
2021/04/26 08:01:07;;;;;;;5.37;1.70;;;;;;;;;;4302325;28;10000813;-67
2021/04/26 08:03:33;;;;;;;5.00;1.77;;;;;;;;;;4982361;28;20213;-67
2021/04/26 08:05:58;;;;;;;6.87;1.60;;;;;;;;;;4986893;28;20190;-67
2021/04/26 08:08:23;;;;;;;6.73;1.70;;;;;;;;;;4977771;28;20592;-68
2021/04/26 08:10:49;;;;;;;6.87;1.90;;;;;;;;;;4981473;28;20199;-67
2021/04/26 08:13:15;;;;;;;6.13;1.50;;;;;;;;;;4979522;28;20677;-67
2021/04/26 08:15:40;;;;;;;10.37;1.60;;;;;;;;;;4986389;28;20175;-67
2021/04/26 08:18:06;;;;;;;7.37;1.60;;;;;;;;;;4978943;28;20185;-67
2021/04/26 08:20:31;;;;;;;5.63;1.50;;;;;;;;;;4983691;28;20911;-67
2021/04/26 08:22:57;;;;;;;3.23;1.63;;;;;;;;;;4975720;28;20267;-67
2021/04/26 08:25:23;;;;;;;5.17;1.80;;;;;;;;;;4987769;28;20241;-68
2021/04/26 08:27:48;;;;;;;3.80;1.60;;;;;;;;;;4982980;28;20745;-68
2021/04/26 08:30:14;;;;;;;4.00;1.23;;;;;;;;;;4992430;28;20501;-67
2021/04/26 08:32:40;;;;;;;6.70;1.60;;;;;;;;;;4985106;28;20643;-67
2021/04/26 08:35:06;;;;;;;3.87;1.37;;;;;;;;;;4983359;28;20199;-67
2021/04/26 08:37:32;;;;;;;4.17;1.20;;;;;;;;;;4987844;28;20195;-67
2021/04/26 08:39:57;;;;;;;5.03;1.50;;;;;;;;;;4981449;28;20215;-67
2021/04/26 08:42:22;;;;;;;3.97;1.67;;;;;;;;;;4991621;28;20266;-67
2021/04/26 08:44:48;;;;;;;3.07;1.40;;;;;;;;;;4978172;28;20187;-67
2021/04/26 08:47:14;;;;;;;3.43;1.57;;;;;;;;;;4987748;28;20634;-67
2021/04/26 08:49:39;;;;;;;3.22;1.90;;;;;;;;;;4981855;28;20217;-67
2021/04/26 08:52:07;;;;;;;3.77;1.40;;;;;;;;;;4985888;28;20183;-67
2021/04/26 08:54:33;;;;;;;5.97;1.55;;;;;;;;;;4981088;28;20195;-67
2021/04/26 08:56:58;;;;;;;2.67;1.60;;;;;;;;;;4989924;28;20686;-67
2021/04/26 08:59:24;;;;;;;8.05;1.60;;;;;;;;;;4981627;28;20245;-68
2021/04/26 09:02:02;;;;;;;4.20;1.75;;;;;;;;;;4990571;28;20190;-67
2021/04/26 09:04:28;;;;;;;3.10;1.60;;;;;;;;;;4990724;28;20175;-67
2021/04/26 09:07:03;;;;;;;5.70;1.67;;;;;;;;;;4982548;28;20525;-68
2021/04/26 09:09:38;;;;;;;3.75;1.55;;;;;;;;;;4987468;28;20172;-67
2021/04/26 09:12:06;;;;;;;5.47;1.45;;;;;;;;;;4980585;28;20281;-68
2021/04/26 09:14:36;;;;;;;4.72;1.70;;;;;;;;;;4988349;28;20183;-67
2021/04/26 09:17:25;;;;;;;4.55;2.15;;;;;;;;;;4980519;28;20201;-68
2021/04/26 09:19:51;;;;;;;3.53;1.80;;;;;;;;;;4995738;28;20203;-68
2021/04/26 09:22:36;;;;;;;10.73;2.03;;;;;;;;;;4980557;28;20330;-67
2021/04/26 09:25:22;;;;;;;10.00;2.20;;;;;;;;;;4988209;28;20194;-67
2021/04/26 09:27:54;;;;;;;7.38;1.80;;;;;;;;;;4980508;28;20575;-68
2021/04/26 09:31:05;;;;;;;5.35;1.63;;;;;;;;;;4995409;28;20734;-68
2021/04/26 09:33:33;;;;;;;4.18;1.90;;;;;;;;;;4982173;28;20254;-68
2021/04/26 09:36:19;;;;;;;6.50;1.73;;;;;;;;;;4994174;28;20187;-68
2021/04/26 09:38:52;;;;;;;4.70;1.98;;;;;;;;;;4990417;28;20712;-68
2021/04/26 09:41:26;;;;;;;7.00;2.08;;;;;;;;;;4995350;28;20192;-68
2021/04/26 09:44:00;;;;;;;4.65;1.83;;;;;;;;;;4983268;28;20233;-68
2021/04/26 09:46:44;;;;;;;4.88;1.77;;;;;;;;;;4988014;28;20723;-68
2021/04/26 09:49:16;;;;;;;6.55;2.38;;;;;;;;;;4983496;28;20198;-68
2021/04/26 09:51:44;;;;;;;5.32;1.88;;;;;;;;;;4990541;28;20294;-68
2021/04/26 09:54:09;;;;;;;7.55;2.40;;;;;;;;;;4981918;28;20311;-68
2021/04/26 09:56:45;;;;;;;4.53;1.98;;;;;;;;;;4990931;28;20202;-69
2021/04/26 09:59:13;;;;;;;5.93;2.17;;;;;;;;;;4985071;28;20246;-68
2021/04/26 10:01:39;;;;;;;5.70;2.30;;;;;;;;;;4994830;28;20646;-68
2021/04/26 10:04:06;;;;;;;6.03;2.00;;;;;;;;;;4988211;28;20201;-68
2021/04/26 10:06:33;;;;;;;7.68;2.10;;;;;;;;;;4995057;28;20199;-68
2021/04/26 10:09:01;;;;;;;6.40;2.35;;;;;;;;;;4987679;28;20198;-68
2021/04/26 10:11:29;;;;;;;4.20;1.80;;;;;;;;;;4991126;28;20556;-68
2021/04/26 10:14:09;;;;;;;4.32;1.90;;;;;;;;;;4989934;28;20187;-68
2021/04/26 10:16:45;;;;;;;4.75;2.05;;;;;;;;;;4995657;28;20589;-68
2021/04/26 10:19:15;;;;;;;6.57;1.90;;;;;;;;;;4984393;28;20270;-68
2021/04/26 10:21:51;;;;;;;6.63;1.92;;;;;;;;;;4992439;28;20351;-68
2021/04/26 10:24:20;;;;;;;6.05;2.00;;;;;;;;;;4981342;28;20286;-68
2021/04/26 10:26:49;;;;;;;6.55;2.70;;;;;;;;;;4992893;28;20898;-68
2021/04/26 10:29:49;;;;;;;3.25;1.80;;;;;;;;;;4984226;28;20195;-68
2021/04/26 10:32:16;;;;;;;7.78;2.00;;;;;;;;;;4960122;28;20504;-68
2021/04/26 10:34:41;;;;;;;6.03;2.08;;;;;;;;;;4985655;28;20184;-68
2021/04/26 10:37:15;;;;;;;4.13;1.90;;;;;;;;;;4991725;28;20270;-68
2021/04/26 10:40:05;;;;;;;5.88;1.73;;;;;;;;;;4993197;28;20286;-68
2021/04/26 10:42:45;;;;;;;3.80;1.83;;;;;;;;;;4993143;28;20187;-68
2021/04/26 10:45:13;;;;;;;8.32;1.88;;;;;;;;;;4990326;28;20589;-69
2021/04/26 10:47:41;;;;;;;5.85;1.95;;;;;;;;;;4990140;28;20611;-68
2021/04/26 10:50:07;;;;;;;4.32;2.00;;;;;;;;;;4995038;28;20206;-68
2021/04/26 10:52:38;;;;;;;8.02;2.25;;;;;;;;;;4983969;28;20218;-68
2021/04/26 10:55:11;;;;;;;4.90;1.75;;;;;;;;;;4993006;28;20191;-69
2021/04/26 10:57:42;;;;;;;5.47;1.70;;;;;;;;;;4985180;28;20281;-68
2021/04/26 11:00:23;;;;;;;5.32;1.92;;;;;;;;;;4990294;28;20219;-69
2021/04/26 11:02:52;;;;;;;5.60;1.75;;;;;;;;;;4988213;28;20216;-68
2021/04/26 11:05:39;;;;;;;3.95;2.05;;;;;;;;;;4989644;28;20191;-68
2021/04/26 11:08:47;;;;;;;4.20;1.88;;;;;;;;;;4980950;28;20242;-68
2021/04/26 11:13:52;;;;;;;3.45;2.03;;;;;;;;;;4993848;28;20589;-69
2021/04/26 11:16:21;;;;;;;2.72;1.70;;;;;;;;;;4991801;28;20178;-69
2021/04/26 11:18:52;;;;;;;3.97;2.00;;;;;;;;;;4981655;28;20265;-68
2021/04/26 11:21:44;;;;;;;4.30;2.00;;;;;;;;;;4993223;28;20188;-68
2021/04/26 11:24:22;;;;;;;4.97;2.03;;;;;;;;;;4999814;28;20289;-68
2021/04/26 11:27:13;;;;;;;4.07;1.67;;;;;;;;;;4992481;28;20186;-68
2021/04/26 11:29:41;;;;;;;3.63;1.95;;;;;;;;;;4998347;28;20190;-68
2021/04/26 11:32:08;;;;;;;3.70;2.00;;;;;;;;;;4989379;28;20543;-69
2021/04/26 11:34:49;;;;;;;5.75;2.00;;;;;;;;;;4990036;28;20316;-68
2021/04/26 11:37:18;;;;;;;3.35;1.75;;;;;;;;;;4992112;28;20195;-68
2021/04/26 11:39:44;;;;;;;4.07;1.90;;;;;;;;;;4985817;28;20214;-68
2021/04/26 11:42:11;;;;;;;6.30;2.10;;;;;;;;;;4992278;28;20631;-68
2021/04/26 11:44:39;;;;;;;3.40;2.03;;;;;;;;;;4988567;28;20422;-67
2021/04/26 11:47:10;;;;;;;5.75;2.45;;;;;;;;;;4989698;28;20250;-67
2021/04/26 11:49:40;;;;;;;4.60;2.17;;;;;;;;;;4980994;28;20649;-67
2021/04/26 11:52:14;;;;;;;4.13;2.15;;;;;;;;;;4989624;28;20190;-68
2021/04/26 11:54:41;;;;;;;8.25;2.40;;;;;;;;;;4980713;28;20229;-68
2021/04/26 11:57:08;;;;;;;7.20;2.55;;;;;;;;;;4987067;28;20580;-68
2021/04/26 11:59:35;;;;;;;6.68;2.08;;;;;;;;;;4980174;28;20211;-68
2021/04/26 12:02:02;;;;;;;4.85;2.72;;;;;;;;;;4989919;28;20671;-68
2021/04/26 12:04:37;;;;;;;7.65;2.33;;;;;;;;;;4981344;28;20187;-68
2021/04/26 12:07:04;;;;;;;6.68;2.33;;;;;;;;;;4988891;28;20375;-68
2021/04/26 12:09:30;;;;;;;6.13;2.00;;;;;;;;;;4989254;28;20402;-68
2021/04/26 12:12:00;;;;;;;7.95;2.20;;;;;;;;;;4992808;28;20694;-68
2021/04/26 12:14:26;;;;;;;6.88;2.60;;;;;;;;;;4983476;28;20191;-69
2021/04/26 12:16:51;;;;;;;3.78;2.10;;;;;;;;;;4989663;28;20512;-67
2021/04/26 12:19:33;;;;;;;4.65;2.17;;;;;;;;;;4991367;28;20410;-67
2021/04/26 12:21:58;;;;;;;6.78;2.50;;;;;;;;;;4987951;28;20578;-68
2021/04/26 12:24:24;;;;;;;6.35;2.42;;;;;;;;;;5006125;28;20190;-68
2021/04/26 12:26:49;;;;;;;4.60;2.50;;;;;;;;;;4982744;28;20192;-68
2021/04/26 12:29:29;;;;;;;6.55;2.47;;;;;;;;;;4991429;28;20187;-68
2021/04/26 12:32:15;;;;;;;4.80;2.08;;;;;;;;;;4986692;28;20626;-68
2021/04/26 12:35:04;;;;;;;6.78;1.98;;;;;;;;;;4992060;28;20218;-68
2021/04/26 12:37:37;;;;;;;7.50;2.20;;;;;;;;;;4980258;28;20245;-68
2021/04/26 12:40:19;;;;;;;8.80;2.22;;;;;;;;;;4999106;28;20210;-68
2021/04/26 12:42:47;;;;;;;6.82;1.90;;;;;;;;;;4985092;28;20190;-68
2021/04/26 12:45:26;;;;;;;9.45;2.38;;;;;;;;;;4991919;28;20546;-68
2021/04/26 12:47:53;;;;;;;8.18;2.20;;;;;;;;;;4988439;28;20269;-68
2021/04/26 12:50:38;;;;;;;5.95;2.20;;;;;;;;;;4991832;28;20195;-68
2021/04/26 12:53:18;;;;;;;6.32;2.65;;;;;;;;;;4992826;28;20253;-68
2021/04/26 12:55:45;;;;;;;5.45;2.30;;;;;;;;;;4989150;28;20643;-68
2021/04/26 12:58:15;;;;;;;6.38;2.55;;;;;;;;;;4986197;28;20544;-67
2021/04/26 13:00:46;;;;;;;6.30;1.98;;;;;;;;;;4993969;28;20204;-68
2021/04/26 13:03:29;;;;;;;5.25;1.80;;;;;;;;;;4990258;28;20679;-68
2021/04/26 13:06:05;;;;;;;7.13;2.40;;;;;;;;;;4998921;28;20278;-68
2021/04/26 13:08:31;;;;;;;4.53;2.00;;;;;;;;;;4984364;28;20209;-68
2021/04/26 13:10:59;;;;;;;6.30;2.10;;;;;;;;;;4993600;28;20767;-68
2021/04/26 13:13:26;;;;;;;3.20;1.90;;;;;;;;;;4989626;28;20206;-68
2021/04/26 13:15:51;;;;;;;4.28;2.03;;;;;;;;;;4991610;28;20334;-68
2021/04/26 13:18:25;;;;;;;5.55;1.85;;;;;;;;;;4983088;28;20269;-68
2021/04/26 13:20:59;;;;;;;5.50;2.13;;;;;;;;;;4990011;28;20591;-68
2021/04/26 13:23:27;;;;;;;3.97;2.15;;;;;;;;;;4986396;28;20231;-68
2021/04/26 13:25:53;;;;;;;2.85;1.77;;;;;;;;;;4993400;28;20190;-68
2021/04/26 13:28:33;;;;;;;6.38;2.10;;;;;;;;;;4988095;28;21205;-68
2021/04/26 13:31:02;;;;;;;7.25;2.15;;;;;;;;;;4994582;28;20197;-68
2021/04/26 13:33:29;;;;;;;6.32;2.42;;;;;;;;;;4985169;28;20211;-69
2021/04/26 13:35:56;;;;;;;4.53;2.10;;;;;;;;;;4992220;28;20529;-68
2021/04/26 13:38:22;;;;;;;4.10;2.45;;;;;;;;;;4992928;28;20559;-69
2021/04/26 13:40:49;;;;;;;5.18;2.10;;;;;;;;;;4982862;28;20214;-68
2021/04/26 13:43:19;;;;;;;9.38;2.17;;;;;;;;;;4992544;28;20180;-68
2021/04/26 13:45:46;;;;;;;8.65;2.33;;;;;;;;;;4984142;28;20773;-69
2021/04/26 13:48:11;;;;;;;5.25;2.38;;;;;;;;;;4995521;28;20266;-69
2021/04/26 13:50:37;;;;;;;7.78;2.53;;;;;;;;;;4982320;28;20274;-69
2021/04/26 13:53:03;;;;;;;10.60;2.25;;;;;;;;;;4991246;28;20180;-69
2021/04/26 13:55:29;;;;;;;5.03;2.30;;;;;;;;;;4991054;28;20183;-69
2021/04/26 13:57:55;;;;;;;3.42;2.17;;;;;;;;;;4995937;28;20206;-69
2021/04/26 14:00:21;;;;;;;2.75;1.92;;;;;;;;;;4986296;28;20198;-69
2021/04/26 14:02:46;;;;;;;3.20;2.20;;;;;;;;;;4992651;28;20245;-69
2021/04/26 14:05:12;;;;;;;3.78;2.17;;;;;;;;;;4981118;28;20220;-68
2021/04/26 14:07:38;;;;;;;5.95;2.20;;;;;;;;;;4991216;28;20687;-67
2021/04/26 14:10:04;;;;;;;4.18;2.20;;;;;;;;;;4990705;28;20277;-67
2021/04/26 14:12:30;;;;;;;4.90;2.30;;;;;;;;;;4992822;28;20190;-68
2021/04/26 14:14:55;;;;;;;4.82;1.95;;;;;;;;;;4994994;28;20187;-68
2021/04/26 14:17:21;;;;;;;4.38;2.22;;;;;;;;;;4985455;28;20586;-70
2021/04/26 14:19:47;;;;;;;3.20;1.92;;;;;;;;;;4996292;28;20698;-69
2021/04/26 14:22:13;;;;;;;3.78;2.10;;;;;;;;;;4991463;28;20202;-69
2021/04/26 14:24:38;;;;;;;8.65;2.33;;;;;;;;;;4996664;28;20183;-69
2021/04/26 14:27:04;;;;;;;5.32;1.95;;;;;;;;;;4989777;28;20198;-69
2021/04/26 14:29:30;;;;;;;4.88;2.83;;;;;;;;;;4994745;28;20203;-69
2021/04/26 14:31:55;;;;;;;6.10;2.00;;;;;;;;;;4993580;28;20204;-69
2021/04/26 14:34:20;;;;;;;4.07;2.20;;;;;;;;;;4995066;28;20201;-69
2021/04/26 14:36:46;;;;;;;6.72;2.38;;;;;;;;;;4983303;28;20230;-69
2021/04/26 14:39:11;;;;;;;7.40;2.45;;;;;;;;;;4997979;28;20641;-69
2021/04/26 14:41:37;;;;;;;6.00;2.88;;;;;;;;;;4995364;28;20390;-69
2021/04/26 14:44:03;;;;;;;5.90;2.10;;;;;;;;;;4986935;28;20733;-69
2021/04/26 14:46:28;;;;;;;8.60;3.63;;;;;;;;;;4993543;28;20255;-68
2021/04/26 14:48:53;;;;;;;7.10;3.35;;;;;;;;;;4985623;28;20198;-68
2021/04/26 14:51:19;;;;;;;4.90;3.00;;;;;;;;;;4990210;28;20179;-68